Time,TemperatureF,DewpointF,PressureIn,WindDirection,WindDirectionDegrees,WindSpeedMPH,WindSpeedGustMPH,Humidity,HourlyPrecipIn,Conditions,Clouds,dailyrainin,SoftwareType,DateUTC
2013-06-04 00:01:00,43.7,40.5,30.13,SSE,148,0.0,2.0,88,0.00,,,0.00,meteohub,2013-06-04 04:01:00,
2013-06-04 00:02:00,43.5,40.3,30.13,SSE,148,0.0,2.0,88,0.00,,,0.00,meteohub,2013-06-04 04:02:00,
2013-06-04 00:07:00,43.3,40.1,30.13,SSE,149,0.0,2.0,88,0.00,,,0.00,meteohub,2013-06-04 04:07:00,
2013-06-04 00:12:00,43.2,40.1,30.14,SSE,148,0.0,1.0,89,0.00,,,0.00,meteohub,2013-06-04 04:12:00,
2013-06-04 00:17:00,43.0,39.9,30.14,SSE,148,0.0,0.0,89,0.00,,,0.00,meteohub,2013-06-04 04:17:00,
2013-06-04 00:22:00,42.6,39.6,30.14,SSE,148,0.0,0.0,89,0.00,,,0.00,meteohub,2013-06-04 04:22:00,
2013-06-04 00:28:00,42.4,39.7,30.14,SSE,148,0.0,0.0,90,0.00,,,0.00,meteohub,2013-06-04 04:28:00,
2013-06-04 00:33:00,42.3,39.7,30.15,SSE,148,0.0,0.0,91,0.00,,,0.00,meteohub,2013-06-04 04:33:00,
2013-06-04 00:38:00,42.1,39.6,30.15,SSE,148,0.0,0.0,91,0.00,,,0.00,meteohub,2013-06-04 04:38:00,
2013-06-04 00:43:00,41.9,39.4,30.15,SSE,150,0.0,0.0,91,0.00,,,0.00,meteohub,2013-06-04 04:43:00,
2013-06-04 00:48:00,41.7,39.2,30.15,SSE,150,0.0,0.0,91,0.00,,,0.00,meteohub,2013-06-04 04:48:00,
2013-06-04 00:53:00,41.5,39.2,30.15,SSE,147,0.0,0.0,91,0.00,,,0.00,meteohub,2013-06-04 04:53:00,
2013-06-04 00:58:00,41.5,39.4,30.15,SSE,157,0.0,0.0,92,0.00,,,0.00,meteohub,2013-06-04 04:58:00,
2013-06-04 01:03:00,41.4,39.2,30.15,SSE,157,0.0,1.0,92,0.00,,,0.00,meteohub,2013-06-04 05:03:00,
2013-06-04 01:08:00,41.2,39.0,30.16,SSE,161,0.0,1.0,92,0.00,,,0.00,meteohub,2013-06-04 05:08:00,
2013-06-04 01:13:00,41.2,39.4,30.15,SSE,162,0.0,0.0,93,0.00,,,0.00,meteohub,2013-06-04 05:13:00,
2013-06-04 01:18:00,41.2,39.4,30.16,SSE,162,0.0,1.0,93,0.00,,,0.00,meteohub,2013-06-04 05:18:00,
2013-06-04 01:23:00,40.8,38.7,30.16,SE,134,0.0,1.0,92,0.00,,,0.00,meteohub,2013-06-04 05:23:00,
2013-06-04 01:28:00,40.6,38.5,30.16,SE,130,0.0,1.0,92,0.00,,,0.00,meteohub,2013-06-04 05:28:00,
2013-06-04 01:33:00,40.5,38.7,30.16,SE,130,0.0,1.0,93,0.00,,,0.00,meteohub,2013-06-04 05:33:00,
2013-06-04 01:38:00,40.5,38.7,30.16,ESE,119,0.0,1.0,93,0.00,,,0.00,meteohub,2013-06-04 05:38:00,
2013-06-04 01:43:00,40.3,38.5,30.16,ESE,119,0.0,0.0,93,0.00,,,0.00,meteohub,2013-06-04 05:43:00,
2013-06-04 01:48:00,39.9,38.1,30.16,ESE,119,0.0,0.0,93,0.00,,,0.00,meteohub,2013-06-04 05:48:00,
2013-06-04 01:53:00,39.7,37.9,30.16,ESE,119,0.0,0.0,93,0.00,,,0.00,meteohub,2013-06-04 05:53:00,
2013-06-04 01:58:00,39.6,37.8,30.16,ESE,119,0.0,0.0,93,0.00,,,0.00,meteohub,2013-06-04 05:58:00,
2013-06-04 02:03:00,39.4,37.8,30.16,ESE,119,0.0,0.0,94,0.00,,,0.00,meteohub,2013-06-04 06:03:00,
2013-06-04 02:08:00,39.6,38.3,30.16,ENE,70,0.0,0.0,95,0.00,,,0.00,meteohub,2013-06-04 06:08:00,
2013-06-04 02:13:00,39.6,37.9,30.16,SE,136,0.0,1.0,94,0.00,,,0.00,meteohub,2013-06-04 06:13:00,
2013-06-04 02:18:00,39.4,37.8,30.16,SE,136,0.0,1.0,94,0.00,,,0.00,meteohub,2013-06-04 06:18:00,
2013-06-04 02:23:00,39.4,37.8,30.16,SE,136,0.0,1.0,94,0.00,,,0.00,meteohub,2013-06-04 06:23:00,
2013-06-04 02:28:00,39.2,37.9,30.16,SE,134,0.0,1.0,95,0.00,,,0.00,meteohub,2013-06-04 06:28:00,
2013-06-04 02:33:00,39.0,37.8,30.16,SE,124,0.0,1.0,95,0.00,,,0.00,meteohub,2013-06-04 06:33:00,
2013-06-04 02:38:00,39.0,37.8,30.16,South,169,0.0,1.0,95,0.00,,,0.00,meteohub,2013-06-04 06:38:00,
2013-06-04 02:43:00,38.7,37.4,30.16,South,169,0.0,1.0,95,0.00,,,0.00,meteohub,2013-06-04 06:43:00,
2013-06-04 02:48:00,38.5,37.2,30.16,SSE,160,0.0,1.0,95,0.00,,,0.00,meteohub,2013-06-04 06:48:00,
2013-06-04 02:53:00,38.5,37.2,30.16,SE,133,1.0,1.0,95,0.00,,,0.00,meteohub,2013-06-04 06:53:00,
2013-06-04 02:58:00,38.1,36.9,30.16,East,99,0.0,2.0,95,0.00,,,0.00,meteohub,2013-06-04 06:58:00,
2013-06-04 03:03:00,37.9,36.7,30.17,SE,142,1.0,2.0,95,0.00,,,0.00,meteohub,2013-06-04 07:03:00,
2013-06-04 03:08:00,37.9,36.7,30.17,ENE,63,0.0,2.0,95,0.00,,,0.00,meteohub,2013-06-04 07:08:00,
2013-06-04 03:13:00,37.9,36.7,30.17,ENE,62,0.0,2.0,95,0.00,,,0.00,meteohub,2013-06-04 07:13:00,
2013-06-04 03:19:00,37.8,36.5,30.16,ENE,65,0.0,1.0,95,0.00,,,0.00,meteohub,2013-06-04 07:19:00,
2013-06-04 03:24:00,37.8,36.5,30.16,ENE,65,0.0,1.0,95,0.00,,,0.00,meteohub,2013-06-04 07:24:00,
2013-06-04 03:29:00,37.8,36.5,30.17,ENE,60,0.0,1.0,95,0.00,,,0.00,meteohub,2013-06-04 07:29:00,
2013-06-04 03:34:00,37.9,36.9,30.16,NE,41,0.0,1.0,96,0.00,,,0.00,meteohub,2013-06-04 07:34:00,
2013-06-04 03:39:00,37.9,36.9,30.16,NE,43,0.0,1.0,96,0.00,,,0.00,meteohub,2013-06-04 07:39:00,
2013-06-04 03:44:00,37.9,36.9,30.16,NE,42,0.0,1.0,96,0.00,,,0.00,meteohub,2013-06-04 07:44:00,
2013-06-04 03:49:00,37.9,36.9,30.16,NE,43,0.0,1.0,96,0.00,,,0.00,meteohub,2013-06-04 07:49:00,
2013-06-04 03:54:00,37.9,36.9,30.17,NE,43,0.0,1.0,96,0.00,,,0.00,meteohub,2013-06-04 07:54:00,
2013-06-04 03:59:00,37.8,36.7,30.16,NE,43,0.0,1.0,96,0.00,,,0.00,meteohub,2013-06-04 07:59:00,
2013-06-04 04:04:00,37.4,36.1,30.16,NE,43,0.0,1.0,95,0.00,,,0.00,meteohub,2013-06-04 08:04:00,
2013-06-04 04:09:00,37.2,36.1,30.16,NE,43,0.0,1.0,96,0.00,,,0.00,meteohub,2013-06-04 08:09:00,
2013-06-04 04:14:00,37.0,36.0,30.16,NE,43,0.0,1.0,96,0.00,,,0.00,meteohub,2013-06-04 08:14:00,
2013-06-04 04:19:00,36.9,35.8,30.17,NE,43,0.0,1.0,96,0.00,,,0.00,meteohub,2013-06-04 08:19:00,
2013-06-04 04:24:00,36.9,35.8,30.17,NNE,24,0.0,1.0,96,0.00,,,0.00,meteohub,2013-06-04 08:24:00,
2013-06-04 04:29:00,36.5,35.4,30.17,NNE,24,0.0,0.0,96,0.00,,,0.00,meteohub,2013-06-04 08:29:00,
2013-06-04 04:34:00,36.3,35.2,30.17,NNE,24,0.0,0.0,96,0.00,,,0.00,meteohub,2013-06-04 08:34:00,
2013-06-04 04:39:00,36.1,35.1,30.17,NNE,24,0.0,0.0,96,0.00,,,0.00,meteohub,2013-06-04 08:39:00,
2013-06-04 04:44:00,36.1,35.1,30.17,NNE,24,0.0,0.0,96,0.00,,,0.00,meteohub,2013-06-04 08:44:00,
2013-06-04 04:49:00,36.0,34.9,30.17,NNE,24,0.0,1.0,96,0.00,,,0.00,meteohub,2013-06-04 08:49:00,
2013-06-04 04:54:00,36.0,34.9,30.17,East,89,0.0,1.0,96,0.00,,,0.00,meteohub,2013-06-04 08:54:00,
2013-06-04 04:59:00,36.0,34.9,30.17,East,89,0.0,1.0,96,0.00,,,0.00,meteohub,2013-06-04 08:59:00,
2013-06-04 05:04:00,36.1,35.1,30.17,East,90,0.0,1.0,96,0.00,,,0.00,meteohub,2013-06-04 09:04:00,
2013-06-04 05:09:00,36.1,35.1,30.18,East,100,0.0,1.0,96,0.00,,,0.00,meteohub,2013-06-04 09:09:00,
2013-06-04 05:14:00,36.1,35.1,30.18,SSE,167,0.0,1.0,96,0.00,,,0.00,meteohub,2013-06-04 09:14:00,
2013-06-04 05:19:00,36.0,34.9,30.18,SSE,167,0.0,1.0,96,0.00,,,0.00,meteohub,2013-06-04 09:19:00,
2013-06-04 05:24:00,35.8,34.7,30.18,SSE,167,0.0,1.0,96,0.00,,,0.00,meteohub,2013-06-04 09:24:00,
2013-06-04 05:29:00,35.4,34.3,30.18,SSE,167,0.0,1.0,96,0.00,,,0.00,meteohub,2013-06-04 09:29:00,
2013-06-04 05:34:00,35.4,34.3,30.18,SSE,167,0.0,0.0,96,0.00,,,0.00,meteohub,2013-06-04 09:34:00,
2013-06-04 05:39:00,35.2,34.2,30.18,SSE,167,0.0,0.0,96,0.00,,,0.00,meteohub,2013-06-04 09:39:00,
2013-06-04 05:44:00,35.2,34.2,30.18,SSE,167,0.0,1.0,96,0.00,,,0.00,meteohub,2013-06-04 09:44:00,
2013-06-04 05:49:00,35.2,34.2,30.18,SSE,160,0.0,1.0,96,0.00,,,0.00,meteohub,2013-06-04 09:49:00,
2013-06-04 05:54:00,35.2,34.2,30.18,SSE,160,0.0,0.0,96,0.00,,,0.00,meteohub,2013-06-04 09:54:00,
2013-06-04 05:59:00,35.2,34.5,30.18,SSE,159,0.0,0.0,97,0.00,,,0.00,meteohub,2013-06-04 09:59:00,
2013-06-04 06:04:00,35.2,34.5,30.18,SSE,160,0.0,0.0,97,0.00,,,0.00,meteohub,2013-06-04 10:04:00,
2013-06-04 06:09:00,35.2,34.2,30.18,SSE,160,0.0,0.0,96,0.00,,,0.00,meteohub,2013-06-04 10:09:00,
2013-06-04 06:14:00,35.2,34.2,30.19,South,171,0.0,0.0,96,0.00,,,0.00,meteohub,2013-06-04 10:14:00,
2013-06-04 06:19:00,35.2,34.5,30.19,South,171,0.0,1.0,97,0.00,,,0.00,meteohub,2013-06-04 10:19:00,
2013-06-04 06:24:00,35.2,34.2,30.19,South,171,0.0,1.0,96,0.00,,,0.00,meteohub,2013-06-04 10:24:00,
2013-06-04 06:29:00,35.2,34.2,30.19,South,171,0.0,1.0,96,0.00,,,0.00,meteohub,2013-06-04 10:29:00,
2013-06-04 06:34:00,35.1,34.0,30.19,SSE,159,0.0,0.0,96,0.00,,,0.00,meteohub,2013-06-04 10:34:00,
2013-06-04 06:39:00,35.2,34.2,30.20,SSE,159,0.0,1.0,96,0.00,,,0.00,meteohub,2013-06-04 10:39:00,
2013-06-04 06:44:00,36.0,34.9,30.20,ESE,113,0.0,1.0,96,0.00,,,0.00,meteohub,2013-06-04 10:44:00,
2013-06-04 06:49:00,37.0,36.3,30.20,East,96,0.0,1.0,97,0.00,,,0.00,meteohub,2013-06-04 10:49:00,
2013-06-04 06:54:00,37.9,36.9,30.19,SE,126,1.0,1.0,96,0.00,,,0.00,meteohub,2013-06-04 10:54:00,
2013-06-04 06:59:00,38.7,37.4,30.20,ESE,102,0.0,1.0,95,0.00,,,0.00,meteohub,2013-06-04 10:59:00,
2013-06-04 07:04:00,39.6,37.8,30.20,SE,140,0.0,1.0,93,0.00,,,0.00,meteohub,2013-06-04 11:04:00,
2013-06-04 07:09:00,40.5,38.1,30.20,ENE,61,0.0,1.0,91,0.00,,,0.00,meteohub,2013-06-04 11:09:00,
2013-06-04 07:14:00,41.2,37.9,30.19,ENE,70,2.0,2.0,88,0.00,,,0.00,meteohub,2013-06-04 11:14:00,
2013-06-04 07:20:00,41.7,38.1,30.20,East,80,1.0,2.0,87,0.00,,,0.00,meteohub,2013-06-04 11:20:00,
2013-06-04 07:25:00,42.6,38.5,30.20,SE,143,0.0,2.0,85,0.00,,,0.00,meteohub,2013-06-04 11:25:00,
2013-06-04 07:30:00,43.5,39.0,30.20,SSE,165,0.0,2.0,84,0.00,,,0.00,meteohub,2013-06-04 11:30:00,
2013-06-04 07:35:00,44.2,39.0,30.20,ENE,67,0.0,1.0,82,0.00,,,0.00,meteohub,2013-06-04 11:35:00,
2013-06-04 07:40:00,45.0,39.7,30.21,ENE,65,0.0,1.0,82,0.00,,,0.00,meteohub,2013-06-04 11:40:00,
2013-06-04 07:45:00,45.1,39.4,30.21,ENE,65,0.0,1.0,80,0.00,,,0.00,meteohub,2013-06-04 11:45:00,
2013-06-04 07:50:00,45.9,40.1,30.21,East,81,0.0,1.0,80,0.00,,,0.00,meteohub,2013-06-04 11:50:00,
2013-06-04 07:55:00,47.1,41.0,30.22,East,81,0.0,1.0,79,0.00,,,0.00,meteohub,2013-06-04 11:55:00,
2013-06-04 08:00:00,48.7,41.2,30.22,East,81,0.0,1.0,75,0.00,,,0.00,meteohub,2013-06-04 12:00:00,
2013-06-04 08:05:00,49.3,41.4,30.22,East,81,0.0,1.0,74,0.00,,,0.00,meteohub,2013-06-04 12:05:00,
2013-06-04 08:10:00,49.8,41.9,30.22,East,79,0.0,1.0,74,0.00,,,0.00,meteohub,2013-06-04 12:10:00,
2013-06-04 08:15:00,50.7,42.8,30.22,ESE,106,0.0,1.0,74,0.00,,,0.00,meteohub,2013-06-04 12:15:00,
2013-06-04 08:20:00,51.1,42.1,30.22,ESE,107,0.0,1.0,71,0.00,,,0.00,meteohub,2013-06-04 12:20:00,
2013-06-04 08:25:00,51.6,42.4,30.22,ESE,112,0.0,1.0,71,0.00,,,0.00,meteohub,2013-06-04 12:25:00,
2013-06-04 08:30:00,52.0,42.4,30.22,East,92,0.0,1.0,70,0.00,,,0.00,meteohub,2013-06-04 12:30:00,
2013-06-04 08:35:00,52.5,43.0,30.22,ESE,103,0.0,1.0,70,0.00,,,0.00,meteohub,2013-06-04 12:35:00,
2013-06-04 08:40:00,52.7,42.4,30.23,East,100,0.0,1.0,68,0.00,,,0.00,meteohub,2013-06-04 12:40:00,
2013-06-04 08:45:00,53.4,42.3,30.23,East,79,0.0,1.0,66,0.00,,,0.00,meteohub,2013-06-04 12:45:00,
2013-06-04 08:50:00,54.3,42.8,30.23,NE,48,1.0,1.0,65,0.00,,,0.00,meteohub,2013-06-04 12:50:00,
2013-06-04 08:55:00,54.5,40.1,30.23,NE,53,0.0,1.0,58,0.00,,,0.00,meteohub,2013-06-04 12:55:00,
2013-06-04 09:00:00,54.7,40.6,30.23,ENE,75,1.0,1.0,59,0.00,,,0.00,meteohub,2013-06-04 13:00:00,
2013-06-04 09:05:00,55.0,38.7,30.23,ENE,57,0.0,1.0,54,0.00,,,0.00,meteohub,2013-06-04 13:05:00,
2013-06-04 09:10:00,55.8,40.3,30.23,South,183,0.0,2.0,56,0.00,,,0.00,meteohub,2013-06-04 13:10:00,
2013-06-04 09:15:00,56.3,40.8,30.22,ESE,122,0.0,2.0,56,0.00,,,0.00,meteohub,2013-06-04 13:15:00,
2013-06-04 09:20:00,57.0,41.5,30.23,NNW,338,2.0,2.0,56,0.00,,,0.00,meteohub,2013-06-04 13:20:00,
2013-06-04 09:25:00,56.1,36.7,30.23,North,352,2.0,3.0,48,0.00,,,0.00,meteohub,2013-06-04 13:25:00,
2013-06-04 09:30:00,55.0,33.4,30.23,NNW,333,2.0,3.0,44,0.00,,,0.00,meteohub,2013-06-04 13:30:00,
2013-06-04 09:35:00,54.9,33.4,30.23,NW,322,2.0,3.0,44,0.00,,,0.00,meteohub,2013-06-04 13:35:00,
2013-06-04 09:40:00,55.0,34.7,30.23,NNW,329,1.0,3.0,46,0.00,,,0.00,meteohub,2013-06-04 13:40:00,
2013-06-04 09:45:00,55.2,36.0,30.23,ENE,65,0.0,3.0,48,0.00,,,0.00,meteohub,2013-06-04 13:45:00,
2013-06-04 09:50:00,55.9,34.9,30.23,NNW,337,1.0,3.0,45,0.00,,,0.00,meteohub,2013-06-04 13:50:00,
2013-06-04 09:55:00,55.9,34.3,30.22,NNW,342,3.0,4.0,44,0.00,,,0.00,meteohub,2013-06-04 13:55:00,
2013-06-04 10:00:00,55.6,35.1,30.22,NNE,17,2.0,6.0,46,0.00,,,0.00,meteohub,2013-06-04 14:00:00,
2013-06-04 10:05:00,55.9,34.3,30.22,NNE,22,1.0,6.0,44,0.00,,,0.00,meteohub,2013-06-04 14:05:00,
2013-06-04 10:10:00,56.5,36.0,30.22,North,349,2.0,5.0,46,0.00,,,0.00,meteohub,2013-06-04 14:10:00,
2013-06-04 10:15:00,56.8,35.2,30.22,SSW,205,2.0,4.0,44,0.00,,,0.00,meteohub,2013-06-04 14:15:00,
2013-06-04 10:20:00,57.7,37.6,30.22,South,174,0.0,4.0,47,0.00,,,0.00,meteohub,2013-06-04 14:20:00,
2013-06-04 10:25:00,58.3,36.5,30.22,SW,216,1.0,4.0,44,0.00,,,0.00,meteohub,2013-06-04 14:25:00,
2013-06-04 10:30:00,59.0,37.8,30.21,WSW,250,1.0,4.0,45,0.00,,,0.00,meteohub,2013-06-04 14:30:00,
2013-06-04 10:35:00,58.5,34.9,30.21,NE,50,2.0,5.0,41,0.00,,,0.00,meteohub,2013-06-04 14:35:00,
2013-06-04 10:40:00,58.3,34.7,30.21,NNE,15,1.0,5.0,41,0.00,,,0.00,meteohub,2013-06-04 14:40:00,
2013-06-04 10:45:00,58.6,35.1,30.21,WNW,295,0.0,8.0,41,0.00,,,0.00,meteohub,2013-06-04 14:45:00,
2013-06-04 10:50:00,58.8,36.3,30.20,West,275,0.0,8.0,43,0.00,,,0.00,meteohub,2013-06-04 14:50:00,
2013-06-04 10:55:00,59.2,36.1,30.20,NNW,342,2.0,8.0,42,0.00,,,0.00,meteohub,2013-06-04 14:55:00,
2013-06-04 11:00:00,59.4,37.4,30.20,NE,48,1.0,7.0,44,0.00,,,0.00,meteohub,2013-06-04 15:00:00,
2013-06-04 11:05:00,59.5,35.8,30.20,NNW,337,4.0,7.0,41,0.00,,,0.00,meteohub,2013-06-04 15:05:00,
2013-06-04 11:10:00,59.5,36.5,30.20,ENE,73,0.0,6.0,42,0.00,,,0.00,meteohub,2013-06-04 15:10:00,
2013-06-04 11:15:00,60.1,36.9,30.20,ENE,77,0.0,6.0,42,0.00,,,0.00,meteohub,2013-06-04 15:15:00,
2013-06-04 11:20:00,60.6,37.9,30.19,SW,221,0.0,6.0,43,0.00,,,0.00,meteohub,2013-06-04 15:20:00,
2013-06-04 11:25:00,61.0,38.3,30.20,SW,214,1.0,4.0,43,0.00,,,0.00,meteohub,2013-06-04 15:25:00,
2013-06-04 11:30:00,61.5,36.3,30.20,West,271,0.0,4.0,39,0.00,,,0.00,meteohub,2013-06-04 15:30:00,
2013-06-04 11:35:00,62.4,37.8,30.20,NE,36,1.0,4.0,40,0.00,,,0.00,meteohub,2013-06-04 15:35:00,
2013-06-04 11:40:00,63.3,37.9,30.20,ENE,62,2.0,5.0,39,0.00,,,0.00,meteohub,2013-06-04 15:40:00,
2013-06-04 11:45:00,63.9,39.7,30.20,SE,140,3.0,5.0,41,0.00,,,0.00,meteohub,2013-06-04 15:45:00,
2013-06-04 11:50:00,64.8,39.2,30.20,NNE,12,0.0,5.0,39,0.00,,,0.00,meteohub,2013-06-04 15:50:00,
2013-06-04 11:55:00,65.1,35.2,30.20,SSE,150,0.0,4.0,33,0.00,,,0.00,meteohub,2013-06-04 15:55:00,
2013-06-04 12:00:00,65.7,36.5,30.20,SSE,160,1.0,3.0,34,0.00,,,0.00,meteohub,2013-06-04 16:00:00,
2013-06-04 12:05:00,65.7,38.7,30.20,SSE,147,0.0,3.0,37,0.00,,,0.00,meteohub,2013-06-04 16:05:00,
2013-06-04 12:10:00,66.6,38.1,30.20,NE,40,0.0,2.0,35,0.00,,,0.00,meteohub,2013-06-04 16:10:00,
2013-06-04 12:15:00,66.0,35.2,30.20,NNW,345,4.0,4.0,32,0.00,,,0.00,meteohub,2013-06-04 16:15:00,
2013-06-04 12:20:00,64.2,34.5,30.20,West,264,3.0,5.0,33,0.00,,,0.00,meteohub,2013-06-04 16:20:00,
2013-06-04 12:25:00,64.2,35.2,30.20,NE,34,3.0,5.0,34,0.00,,,0.00,meteohub,2013-06-04 16:25:00,
2013-06-04 12:30:00,64.8,35.8,30.20,West,264,1.0,5.0,34,0.00,,,0.00,meteohub,2013-06-04 16:30:00,
2013-06-04 12:36:00,64.8,35.8,30.20,South,178,1.0,4.0,34,0.00,,,0.00,meteohub,2013-06-04 16:36:00,
2013-06-04 12:41:00,66.2,33.8,30.20,ENE,64,0.0,4.0,30,0.00,,,0.00,meteohub,2013-06-04 16:41:00,
2013-06-04 12:46:00,67.3,37.2,30.20,NE,41,0.0,4.0,33,0.00,,,0.00,meteohub,2013-06-04 16:46:00,
2013-06-04 12:51:00,67.6,35.1,30.20,North,351,2.0,4.0,30,0.00,,,0.00,meteohub,2013-06-04 16:51:00,
2013-06-04 12:56:00,66.6,34.2,30.19,NW,320,4.0,7.0,30,0.00,,,0.00,meteohub,2013-06-04 16:56:00,
2013-06-04 13:01:00,65.1,34.5,30.19,WNW,299,2.0,7.0,32,0.00,,,0.00,meteohub,2013-06-04 17:01:00,
2013-06-04 13:06:00,65.1,35.2,30.19,East,84,0.0,7.0,33,0.00,,,0.00,meteohub,2013-06-04 17:06:00,
2013-06-04 13:11:00,66.6,36.5,30.19,South,188,0.0,7.0,33,0.00,,,0.00,meteohub,2013-06-04 17:11:00,
2013-06-04 13:16:00,66.6,36.5,30.19,NNE,31,3.0,4.0,33,0.00,,,0.00,meteohub,2013-06-04 17:16:00,
2013-06-04 13:21:00,66.2,35.4,30.19,NW,311,2.0,4.0,32,0.00,,,0.00,meteohub,2013-06-04 17:21:00,
2013-06-04 13:26:00,65.5,34.9,30.19,SSW,199,1.0,5.0,32,0.00,,,0.00,meteohub,2013-06-04 17:26:00,
2013-06-04 13:31:00,65.8,37.4,30.20,East,88,1.0,5.0,35,0.00,,,0.00,meteohub,2013-06-04 17:31:00,
2013-06-04 13:36:00,65.7,36.5,30.19,ESE,123,0.0,5.0,34,0.00,,,0.00,meteohub,2013-06-04 17:36:00,
2013-06-04 13:41:00,66.4,37.2,30.20,North,7,4.0,4.0,34,0.00,,,0.00,meteohub,2013-06-04 17:41:00,
2013-06-04 13:46:00,66.0,39.0,30.19,WNW,289,4.0,6.0,37,0.00,,,0.00,meteohub,2013-06-04 17:46:00,
2013-06-04 13:51:00,65.5,37.8,30.19,South,186,2.0,9.0,36,0.00,,,0.00,meteohub,2013-06-04 17:51:00,
2013-06-04 13:57:00,65.3,37.6,30.19,SW,235,1.0,9.0,36,0.00,,,0.00,meteohub,2013-06-04 17:57:00,
2013-06-04 14:02:00,65.7,37.2,30.19,NW,321,0.0,9.0,35,0.00,,,0.00,meteohub,2013-06-04 18:02:00,
2013-06-04 14:07:00,65.5,37.0,30.19,NW,312,3.0,6.0,35,0.00,,,0.00,meteohub,2013-06-04 18:07:00,
2013-06-04 14:12:00,65.1,37.6,30.19,NNW,330,2.0,6.0,36,0.00,,,0.00,meteohub,2013-06-04 18:12:00,
2013-06-04 14:17:00,65.1,38.8,30.19,WNW,285,3.0,6.0,38,0.00,,,0.00,meteohub,2013-06-04 18:17:00,
2013-06-04 14:22:00,64.9,39.4,30.19,North,0,4.0,7.0,39,0.00,,,0.00,meteohub,2013-06-04 18:22:00,
2013-06-04 14:27:00,64.8,39.2,30.19,WNW,302,5.0,7.0,39,0.00,,,0.00,meteohub,2013-06-04 18:27:00,
2013-06-04 14:32:00,64.2,38.7,30.19,WSW,241,2.0,10.0,39,0.00,,,0.00,meteohub,2013-06-04 18:32:00,
2013-06-04 14:37:00,64.2,40.6,30.19,WSW,245,4.0,10.0,42,0.00,,,0.00,meteohub,2013-06-04 18:37:00,
2013-06-04 14:42:00,64.0,39.9,30.19,NW,312,5.0,10.0,41,0.00,,,0.00,meteohub,2013-06-04 18:42:00,
2013-06-04 14:47:00,63.7,38.8,30.19,SW,218,2.0,8.0,40,0.00,,,0.00,meteohub,2013-06-04 18:47:00,
2013-06-04 14:52:00,63.5,38.1,30.19,NW,313,5.0,8.0,39,0.00,,,0.00,meteohub,2013-06-04 18:52:00,
2013-06-04 14:57:00,63.0,37.0,30.19,WNW,287,3.0,8.0,38,0.00,,,0.00,meteohub,2013-06-04 18:57:00,
2013-06-04 15:02:00,63.0,36.3,30.19,NW,305,4.0,7.0,37,0.00,,,0.00,meteohub,2013-06-04 19:02:00,
2013-06-04 15:07:00,63.3,38.7,30.19,West,280,1.0,7.0,40,0.00,,,0.00,meteohub,2013-06-04 19:07:00,
2013-06-04 15:12:00,63.7,36.9,30.19,SW,221,5.0,7.0,37,0.00,,,0.00,meteohub,2013-06-04 19:12:00,
2013-06-04 15:17:00,63.0,35.6,30.19,NNW,330,2.0,7.0,36,0.00,,,0.00,meteohub,2013-06-04 19:17:00,
2013-06-04 15:22:00,62.8,35.4,30.20,West,270,3.0,7.0,36,0.00,,,0.00,meteohub,2013-06-04 19:22:00,
2013-06-04 15:27:00,62.8,36.9,30.20,WNW,302,1.0,7.0,38,0.00,,,0.00,meteohub,2013-06-04 19:27:00,
2013-06-04 15:32:00,63.0,34.9,30.20,West,266,1.0,5.0,35,0.00,,,0.00,meteohub,2013-06-04 19:32:00,
2013-06-04 15:37:00,62.6,33.8,30.20,SW,226,1.0,7.0,34,0.00,,,0.00,meteohub,2013-06-04 19:37:00,
2013-06-04 15:42:00,62.4,32.9,30.20,West,268,3.0,7.0,33,0.00,,,0.00,meteohub,2013-06-04 19:42:00,
2013-06-04 15:47:00,62.6,36.0,30.20,NW,323,3.0,7.0,37,0.00,,,0.00,meteohub,2013-06-04 19:47:00,
2013-06-04 15:52:00,62.4,37.2,30.20,NNW,343,2.0,8.0,39,0.00,,,0.00,meteohub,2013-06-04 19:52:00,
2013-06-04 15:57:00,62.2,38.3,30.20,NNW,332,2.0,8.0,41,0.00,,,0.00,meteohub,2013-06-04 19:57:00,
2013-06-04 16:02:00,62.2,38.8,30.21,NNW,343,5.0,8.0,42,0.00,,,0.00,meteohub,2013-06-04 20:02:00,
2013-06-04 16:07:00,61.7,38.3,30.21,North,352,4.0,10.0,42,0.00,,,0.00,meteohub,2013-06-04 20:07:00,
2013-06-04 16:12:00,61.7,39.0,30.20,NNW,347,7.0,10.0,43,0.00,,,0.00,meteohub,2013-06-04 20:12:00,
2013-06-04 16:17:00,61.5,37.0,30.20,WNW,285,1.0,10.0,40,0.00,,,0.00,meteohub,2013-06-04 20:17:00,
2013-06-04 16:22:00,61.3,35.6,30.20,NNW,342,5.0,8.0,38,0.00,,,0.00,meteohub,2013-06-04 20:22:00,
2013-06-04 16:27:00,61.2,34.7,30.20,NNW,340,4.0,8.0,37,0.00,,,0.00,meteohub,2013-06-04 20:27:00,
2013-06-04 16:32:00,61.2,34.7,30.20,WNW,289,3.0,8.0,37,0.00,,,0.00,meteohub,2013-06-04 20:32:00,
2013-06-04 16:37:00,61.2,34.7,30.20,NNE,19,3.0,8.0,37,0.00,,,0.00,meteohub,2013-06-04 20:37:00,
2013-06-04 16:42:00,61.2,34.7,30.20,North,357,6.0,8.0,37,0.00,,,0.00,meteohub,2013-06-04 20:42:00,
2013-06-04 16:47:00,61.2,34.7,30.20,WSW,247,2.0,8.0,37,0.00,,,0.00,meteohub,2013-06-04 20:47:00,
2013-06-04 16:52:00,61.3,35.6,30.19,North,357,1.0,8.0,38,0.00,,,0.00,meteohub,2013-06-04 20:52:00,
2013-06-04 16:57:00,61.3,35.6,30.19,West,276,1.0,7.0,38,0.00,,,0.00,meteohub,2013-06-04 20:57:00,
2013-06-04 17:02:00,61.3,34.2,30.19,North,355,4.0,5.0,36,0.00,,,0.00,meteohub,2013-06-04 21:02:00,
2013-06-04 17:07:00,61.3,34.9,30.19,WNW,290,2.0,5.0,37,0.00,,,0.00,meteohub,2013-06-04 21:07:00,
2013-06-04 17:12:00,61.3,34.2,30.19,NW,312,3.0,4.0,36,0.00,,,0.00,meteohub,2013-06-04 21:12:00,
2013-06-04 17:17:00,61.3,33.4,30.19,NW,314,2.0,5.0,35,0.00,,,0.00,meteohub,2013-06-04 21:17:00,
2013-06-04 17:22:00,61.3,34.2,30.19,WNW,290,3.0,5.0,36,0.00,,,0.00,meteohub,2013-06-04 21:22:00,
2013-06-04 17:27:00,61.5,35.6,30.19,North,349,1.0,5.0,38,0.00,,,0.00,meteohub,2013-06-04 21:27:00,
2013-06-04 17:32:00,61.7,35.2,30.19,West,275,1.0,4.0,37,0.00,,,0.00,meteohub,2013-06-04 21:32:00,
2013-06-04 17:37:00,61.7,35.8,30.19,East,85,1.0,4.0,38,0.00,,,0.00,meteohub,2013-06-04 21:37:00,
2013-06-04 17:42:00,61.5,35.6,30.19,NNE,21,1.0,4.0,38,0.00,,,0.00,meteohub,2013-06-04 21:42:00,
2013-06-04 17:47:00,61.5,36.3,30.19,NW,326,2.0,3.0,39,0.00,,,0.00,meteohub,2013-06-04 21:47:00,
2013-06-04 17:52:00,61.5,36.3,30.18,NW,311,2.0,4.0,39,0.00,,,0.00,meteohub,2013-06-04 21:52:00,
2013-06-04 17:57:00,61.9,36.7,30.18,North,5,2.0,4.0,39,0.00,,,0.00,meteohub,2013-06-04 21:57:00,
2013-06-04 18:02:00,61.5,35.1,30.19,West,268,0.0,4.0,37,0.00,,,0.00,meteohub,2013-06-04 22:02:00,
2013-06-04 18:07:00,61.5,35.6,30.18,NE,38,0.0,5.0,38,0.00,,,0.00,meteohub,2013-06-04 22:07:00,
2013-06-04 18:12:00,61.9,35.2,30.18,NW,323,2.0,5.0,37,0.00,,,0.00,meteohub,2013-06-04 22:12:00,
2013-06-04 18:17:00,61.9,36.0,30.18,NW,322,1.0,5.0,38,0.00,,,0.00,meteohub,2013-06-04 22:17:00,
2013-06-04 18:22:00,61.9,35.2,30.18,North,353,1.0,3.0,37,0.00,,,0.00,meteohub,2013-06-04 22:22:00,
2013-06-04 18:27:00,61.5,36.3,30.18,North,350,1.0,3.0,39,0.00,,,0.00,meteohub,2013-06-04 22:27:00,
2013-06-04 18:32:00,61.9,36.0,30.18,North,6,1.0,3.0,38,0.00,,,0.00,meteohub,2013-06-04 22:32:00,
2013-06-04 18:37:00,61.5,35.6,30.18,NW,323,2.0,3.0,38,0.00,,,0.00,meteohub,2013-06-04 22:37:00,
2013-06-04 18:42:00,61.9,36.0,30.17,NE,50,0.0,3.0,38,0.00,,,0.00,meteohub,2013-06-04 22:42:00,
2013-06-04 18:47:00,62.1,36.1,30.17,NE,53,0.0,3.0,38,0.00,,,0.00,meteohub,2013-06-04 22:47:00,
2013-06-04 18:52:00,62.1,36.9,30.17,NNW,335,1.0,2.0,39,0.00,,,0.00,meteohub,2013-06-04 22:52:00,
2013-06-04 18:57:00,61.9,36.7,30.17,ENE,71,0.0,2.0,39,0.00,,,0.00,meteohub,2013-06-04 22:57:00,
2013-06-04 19:02:00,61.5,37.0,30.17,NNW,337,1.0,1.0,40,0.00,,,0.00,meteohub,2013-06-04 23:02:00,
2013-06-04 19:07:00,61.3,36.9,30.17,NNW,337,0.0,2.0,40,0.00,,,0.00,meteohub,2013-06-04 23:07:00,
2013-06-04 19:13:00,61.3,36.9,30.18,North,358,0.0,2.0,40,0.00,,,0.00,meteohub,2013-06-04 23:13:00,
2013-06-04 19:18:00,61.3,37.4,30.18,WNW,302,1.0,2.0,41,0.00,,,0.00,meteohub,2013-06-04 23:18:00,
2013-06-04 19:23:00,61.3,38.7,30.18,SW,223,0.0,2.0,43,0.00,,,0.00,meteohub,2013-06-04 23:23:00,
2013-06-04 19:28:00,61.2,37.2,30.18,SW,223,0.0,1.0,41,0.00,,,0.00,meteohub,2013-06-04 23:28:00,
2013-06-04 19:33:00,61.2,38.5,30.18,SSW,199,0.0,1.0,43,0.00,,,0.00,meteohub,2013-06-04 23:33:00,
2013-06-04 19:38:00,61.2,39.0,30.18,South,190,0.0,1.0,44,0.00,,,0.00,meteohub,2013-06-04 23:38:00,
2013-06-04 19:43:00,61.2,40.3,30.18,South,190,0.0,1.0,46,0.00,,,0.00,meteohub,2013-06-04 23:43:00,
2013-06-04 19:48:00,61.2,40.8,30.18,SSW,192,0.0,1.0,47,0.00,,,0.00,meteohub,2013-06-04 23:48:00,
2013-06-04 19:53:00,61.2,40.8,30.18,South,184,2.0,2.0,47,0.00,,,0.00,meteohub,2013-06-04 23:53:00,
2013-06-04 19:58:00,60.6,39.2,30.18,SW,220,1.0,3.0,45,0.00,,,0.00,meteohub,2013-06-04 23:58:00,
2013-06-04 20:03:00,60.4,39.0,30.18,SW,224,1.0,6.0,45,0.00,,,0.00,meteohub,2013-06-05 00:03:00,
2013-06-04 20:08:00,60.3,38.8,30.18,SW,234,0.0,6.0,45,0.00,,,0.00,meteohub,2013-06-05 00:08:00,
2013-06-04 20:13:00,60.4,39.0,30.17,WSW,238,2.0,6.0,45,0.00,,,0.00,meteohub,2013-06-05 00:13:00,
2013-06-04 20:18:00,60.3,38.3,30.18,SSW,209,0.0,4.0,44,0.00,,,0.00,meteohub,2013-06-05 00:18:00,
2013-06-04 20:23:00,60.3,38.8,30.18,SSW,213,1.0,4.0,45,0.00,,,0.00,meteohub,2013-06-05 00:23:00,
2013-06-04 20:28:00,60.3,38.3,30.19,SW,214,1.0,3.0,44,0.00,,,0.00,meteohub,2013-06-05 00:28:00,
2013-06-04 20:33:00,60.1,38.7,30.19,SSW,200,0.0,3.0,45,0.00,,,0.00,meteohub,2013-06-05 00:33:00,
2013-06-04 20:38:00,59.9,39.0,30.19,SSW,208,1.0,3.0,46,0.00,,,0.00,meteohub,2013-06-05 00:38:00,
2013-06-04 20:43:00,59.5,39.9,30.19,South,183,1.0,3.0,48,0.00,,,0.00,meteohub,2013-06-05 00:43:00,
2013-06-04 20:48:00,59.4,40.6,30.19,SW,220,3.0,3.0,50,0.00,,,0.00,meteohub,2013-06-05 00:48:00,
2013-06-04 20:53:00,59.2,40.6,30.19,SSE,157,0.0,4.0,50,0.00,,,0.00,meteohub,2013-06-05 00:53:00,
2013-06-04 20:58:00,59.0,40.8,30.19,SSW,207,2.0,4.0,51,0.00,,,0.00,meteohub,2013-06-05 00:58:00,
2013-06-04 21:03:00,58.8,41.2,30.19,SW,234,0.0,4.0,52,0.00,,,0.00,meteohub,2013-06-05 01:03:00,
2013-06-04 21:08:00,58.6,41.5,30.19,South,172,0.0,4.0,53,0.00,,,0.00,meteohub,2013-06-05 01:08:00,
2013-06-04 21:13:00,58.5,41.4,30.19,South,183,0.0,3.0,53,0.00,,,0.00,meteohub,2013-06-05 01:13:00,
2013-06-04 21:18:00,58.3,42.6,30.19,South,183,0.0,2.0,56,0.00,,,0.00,meteohub,2013-06-05 01:18:00,
2013-06-04 21:23:00,57.9,42.3,30.19,South,184,0.0,1.0,56,0.00,,,0.00,meteohub,2013-06-05 01:23:00,
2013-06-04 21:28:00,57.7,42.6,30.19,South,183,0.0,1.0,57,0.00,,,0.00,meteohub,2013-06-05 01:28:00,
2013-06-04 21:33:00,57.6,43.7,30.19,South,183,0.0,0.0,60,0.00,,,0.00,meteohub,2013-06-05 01:33:00,
2013-06-04 21:38:00,57.0,43.3,30.19,South,184,0.0,0.0,60,0.00,,,0.00,meteohub,2013-06-05 01:38:00,
2013-06-04 21:43:00,56.8,43.5,30.19,South,184,0.0,1.0,61,0.00,,,0.00,meteohub,2013-06-05 01:43:00,
2013-06-04 21:48:00,56.7,43.0,30.19,South,183,0.0,1.0,60,0.00,,,0.00,meteohub,2013-06-05 01:48:00,
2013-06-04 21:53:00,56.5,44.4,30.20,SSW,197,0.0,1.0,64,0.00,,,0.00,meteohub,2013-06-05 01:53:00,
2013-06-04 21:58:00,56.1,44.6,30.19,SSW,197,0.0,1.0,65,0.00,,,0.00,meteohub,2013-06-05 01:58:00,
2013-06-04 22:03:00,55.9,43.9,30.19,SSW,213,0.0,1.0,64,0.00,,,0.00,meteohub,2013-06-05 02:03:00,
2013-06-04 22:08:00,55.8,44.2,30.20,SSW,213,0.0,1.0,65,0.00,,,0.00,meteohub,2013-06-05 02:08:00,
2013-06-04 22:13:00,55.8,44.6,30.19,North,351,1.0,1.0,66,0.00,,,0.00,meteohub,2013-06-05 02:13:00,
2013-06-04 22:18:00,55.6,44.8,30.19,NNW,343,0.0,1.0,67,0.00,,,0.00,meteohub,2013-06-05 02:18:00,
2013-06-04 22:23:00,55.2,44.1,30.19,NNW,343,0.0,2.0,66,0.00,,,0.00,meteohub,2013-06-05 02:23:00,
2013-06-04 22:29:00,55.2,44.4,30.19,NW,321,0.0,2.0,67,0.00,,,0.00,meteohub,2013-06-05 02:29:00,
2013-06-04 22:34:00,55.0,44.6,30.19,NW,320,0.0,2.0,68,0.00,,,0.00,meteohub,2013-06-05 02:34:00,
2013-06-04 22:39:00,55.0,44.6,30.20,NNW,347,1.0,1.0,68,0.00,,,0.00,meteohub,2013-06-05 02:39:00,
2013-06-04 22:44:00,55.0,45.1,30.20,NNW,344,0.0,1.0,69,0.00,,,0.00,meteohub,2013-06-05 02:44:00,
2013-06-04 22:49:00,54.9,45.0,30.20,WNW,294,0.0,1.0,69,0.00,,,0.00,meteohub,2013-06-05 02:49:00,
2013-06-04 22:54:00,54.9,45.0,30.20,WNW,294,0.0,1.0,69,0.00,,,0.00,meteohub,2013-06-05 02:54:00,
2013-06-04 22:59:00,54.7,44.8,30.19,WNW,295,0.0,1.0,69,0.00,,,0.00,meteohub,2013-06-05 02:59:00,
2013-06-04 23:04:00,54.7,45.1,30.19,NNW,343,0.0,1.0,70,0.00,,,0.00,meteohub,2013-06-05 03:04:00,
2013-06-04 23:09:00,54.7,45.1,30.19,NNW,342,0.0,1.0,70,0.00,,,0.00,meteohub,2013-06-05 03:09:00,
2013-06-04 23:14:00,54.7,45.1,30.19,NNW,343,0.0,1.0,70,0.00,,,0.00,meteohub,2013-06-05 03:14:00,
2013-06-04 23:19:00,54.7,45.1,30.19,NNW,341,0.0,1.0,70,0.00,,,0.00,meteohub,2013-06-05 03:19:00,
2013-06-04 23:24:00,54.5,45.3,30.19,NNW,342,0.0,1.0,71,0.00,,,0.00,meteohub,2013-06-05 03:24:00,
2013-06-04 23:29:00,54.5,46.0,30.19,NNW,342,0.0,1.0,73,0.00,,,0.00,meteohub,2013-06-05 03:29:00,
2013-06-04 23:34:00,54.3,45.1,30.19,NW,309,1.0,1.0,71,0.00,,,0.00,meteohub,2013-06-05 03:34:00,
2013-06-04 23:39:00,54.3,45.5,30.19,NW,309,0.0,1.0,72,0.00,,,0.00,meteohub,2013-06-05 03:39:00,
2013-06-04 23:44:00,54.1,43.9,30.19,NW,309,0.0,1.0,68,0.00,,,0.00,meteohub,2013-06-05 03:44:00,
2013-06-04 23:49:00,54.1,43.9,30.19,SSW,196,1.0,1.0,68,0.00,,,0.00,meteohub,2013-06-05 03:49:00,
2013-06-04 23:54:00,54.1,46.4,30.19,ESE,105,1.0,1.0,75,0.00,,,0.00,meteohub,2013-06-05 03:54:00,
2013-06-04 23:59:00,54.0,46.6,30.19,ESE,116,0.0,3.0,76,0.00,,,0.00,meteohub,2013-06-05 03:59:00,